createdAt,value
2022-10-19T00:01:06.312Z,13.99
2022-10-19T00:03:34.960Z,13.98
2022-10-19T00:06:14.081Z,13.94
2022-10-19T00:08:40.741Z,13.95
2022-10-19T00:11:07.606Z,13.91
2022-10-19T00:13:34.380Z,13.93
2022-10-19T00:16:01.019Z,13.89
2022-10-19T00:18:27.463Z,13.93
2022-10-19T00:21:03.236Z,13.88
2022-10-19T00:23:29.770Z,14.00
2022-10-19T00:25:56.948Z,13.96
2022-10-19T00:28:23.518Z,13.88
2022-10-19T00:33:22.552Z,13.93
2022-10-19T00:35:52.758Z,13.95
2022-10-19T00:38:20.817Z,13.97
2022-10-19T00:40:48.221Z,14.04
2022-10-19T00:43:25.971Z,14.11
2022-10-19T00:45:52.961Z,14.11
2022-10-19T00:48:25.755Z,14.09
2022-10-19T00:50:56.047Z,14.11
2022-10-19T00:53:26.066Z,14.10
2022-10-19T00:55:53.305Z,14.02
2022-10-19T00:58:20.089Z,13.97
2022-10-19T01:00:46.811Z,13.98
2022-10-19T01:03:14.372Z,13.96
2022-10-19T01:05:41.305Z,13.95
2022-10-19T01:08:09.756Z,14.00
2022-10-19T01:10:48.446Z,14.01
2022-10-19T01:13:28.632Z,14.00
2022-10-19T01:16:07.748Z,14.03
2022-10-19T01:18:49.454Z,14.05
2022-10-19T01:21:23.147Z,13.99
2022-10-19T01:24:14.523Z,14.02
2022-10-19T01:27:07.745Z,14.03
2022-10-19T01:30:01.603Z,13.97
2022-10-19T01:33:16.626Z,14.03
2022-10-19T01:36:08.392Z,14.03
2022-10-19T01:38:45.966Z,14.05
2022-10-19T01:41:20.436Z,14.03
2022-10-19T01:43:55.771Z,14.00
2022-10-19T01:46:49.436Z,13.95
2022-10-19T01:49:24.469Z,13.90
2022-10-19T01:54:27.524Z,13.92
2022-10-19T01:56:56.329Z,13.92
2022-10-19T01:59:23.619Z,13.93
2022-10-19T02:01:53.447Z,13.89
2022-10-19T02:04:22.917Z,13.92
2022-10-19T02:06:52.977Z,13.88
2022-10-19T02:09:20.276Z,13.94
2022-10-19T02:11:54.679Z,13.91
2022-10-19T02:14:27.601Z,13.92
2022-10-19T02:17:05.907Z,13.93
2022-10-19T02:19:32.485Z,13.91
2022-10-19T02:21:59.244Z,13.90
2022-10-19T02:24:25.756Z,13.88
2022-10-19T02:26:52.386Z,13.91
2022-10-19T02:29:19.069Z,13.89
2022-10-19T02:31:45.857Z,13.86
2022-10-19T02:34:13.519Z,13.84
2022-10-19T02:36:40.476Z,13.79
2022-10-19T02:39:08.117Z,13.81
2022-10-19T02:42:05.367Z,13.80
2022-10-19T02:44:49.840Z,13.77
2022-10-19T02:47:25.647Z,13.72
2022-10-19T02:49:52.650Z,13.78
2022-10-19T02:52:19.457Z,13.73
2022-10-19T02:54:46.118Z,13.73
2022-10-19T02:57:19.738Z,13.64
2022-10-19T02:59:46.946Z,13.55
2022-10-19T03:02:15.026Z,13.43
2022-10-19T03:04:42.087Z,13.37
2022-10-19T03:07:10.544Z,13.23
2022-10-19T03:09:37.151Z,13.10
2022-10-19T03:12:03.732Z,13.00
2022-10-19T03:14:30.260Z,12.86
2022-10-19T03:16:56.697Z,12.76
2022-10-19T03:19:23.439Z,12.70
2022-10-19T03:21:50.761Z,12.58
2022-10-19T03:24:17.737Z,12.56
2022-10-19T03:26:44.337Z,12.55
2022-10-19T03:29:10.884Z,12.40
2022-10-19T03:31:37.522Z,12.37
2022-10-19T03:34:04.260Z,12.36
2022-10-19T03:36:33.403Z,12.30
2022-10-19T03:39:02.838Z,12.27
2022-10-19T03:41:31.439Z,12.34
2022-10-19T03:43:57.932Z,12.36
2022-10-19T03:46:24.576Z,12.44
2022-10-19T03:48:51.078Z,12.45
2022-10-19T03:51:18.907Z,12.58
2022-10-19T03:53:45.585Z,12.63
2022-10-19T03:56:17.723Z,12.64
2022-10-19T03:58:46.866Z,12.68
2022-10-19T04:01:16.411Z,12.69
2022-10-19T04:03:43.097Z,12.68
2022-10-19T04:06:19.764Z,12.63
2022-10-19T04:08:49.816Z,12.70
2022-10-19T04:11:18.534Z,12.75
2022-10-19T04:13:48.303Z,12.85
2022-10-19T04:16:14.815Z,12.68
2022-10-19T04:18:41.300Z,12.61
2022-10-19T04:21:07.806Z,12.70
2022-10-19T04:23:35.167Z,12.71
2022-10-19T04:26:05.613Z,12.70
2022-10-19T04:28:32.466Z,12.78
2022-10-19T04:31:02.902Z,12.73
2022-10-19T04:33:29.327Z,12.67
2022-10-19T04:35:59.946Z,12.64
2022-10-19T04:38:27.511Z,12.77
2022-10-19T04:40:53.969Z,12.72
2022-10-19T04:43:20.433Z,12.72
2022-10-19T04:45:46.887Z,12.76
2022-10-19T04:48:15.103Z,12.74
2022-10-19T04:50:41.833Z,12.74
2022-10-19T04:53:08.262Z,12.63
2022-10-19T04:55:34.688Z,12.28
2022-10-19T04:58:01.130Z,12.37
2022-10-19T05:00:27.582Z,12.32
2022-10-19T05:02:54.031Z,12.35
2022-10-19T05:05:20.552Z,12.33
2022-10-19T05:07:48.515Z,12.56
2022-10-19T05:10:15.055Z,12.33
2022-10-19T05:12:41.402Z,12.46
2022-10-19T05:15:08.534Z,12.23
2022-10-19T05:17:35.368Z,12.18
2022-10-19T05:20:02.155Z,12.18
2022-10-19T05:22:28.533Z,12.08
2022-10-19T05:24:58.058Z,12.09
2022-10-19T05:27:24.806Z,12.12
2022-10-19T05:29:51.311Z,12.13
2022-10-19T05:32:17.771Z,12.13
2022-10-19T05:34:44.264Z,12.12
2022-10-19T05:37:10.654Z,12.09
2022-10-19T05:39:37.083Z,12.11
2022-10-19T05:42:03.756Z,12.07
2022-10-19T05:44:30.382Z,12.12
2022-10-19T05:46:56.860Z,12.21
2022-10-19T05:49:23.396Z,12.10
2022-10-19T05:51:49.916Z,12.10
2022-10-19T05:54:16.388Z,12.03
2022-10-19T05:56:43.874Z,12.15
2022-10-19T05:59:14.834Z,12.25
2022-10-19T06:01:41.329Z,12.26
2022-10-19T06:04:07.879Z,12.34
2022-10-19T06:06:34.585Z,12.27
2022-10-19T06:09:01.020Z,12.15
2022-10-19T06:11:30.758Z,12.20
2022-10-19T06:13:59.488Z,12.19
2022-10-19T06:16:27.168Z,12.25
2022-10-19T06:18:54.856Z,12.28
2022-10-19T06:21:24.006Z,12.24
2022-10-19T06:23:55.888Z,12.26
2022-10-19T06:26:23.234Z,12.36
2022-10-19T06:28:50.394Z,12.40
2022-10-19T06:31:17.570Z,12.53
2022-10-19T06:33:48.477Z,12.54
2022-10-19T06:36:19.582Z,12.58
2022-10-19T06:38:46.793Z,12.67
2022-10-19T06:41:13.396Z,12.76
2022-10-19T06:43:40.271Z,12.81
2022-10-19T06:46:14.782Z,12.71
2022-10-19T06:48:41.435Z,12.75
2022-10-19T06:51:07.933Z,12.67
2022-10-19T06:53:36.065Z,12.81
2022-10-19T06:56:05.816Z,13.02
2022-10-19T06:58:36.883Z,13.06
2022-10-19T07:01:05.112Z,13.16
2022-10-19T07:03:31.543Z,13.02
2022-10-19T07:06:00.000Z,13.03
2022-10-19T07:08:28.374Z,13.24
2022-10-19T07:10:57.449Z,13.27
2022-10-19T07:13:25.138Z,13.38
2022-10-19T07:15:58.452Z,13.39
2022-10-19T07:18:25.867Z,13.55
2022-10-19T07:21:00.326Z,13.52
2022-10-19T07:23:28.790Z,13.61
2022-10-19T07:26:00.926Z,13.56
2022-10-19T07:28:29.327Z,13.81
2022-10-19T07:30:56.256Z,13.75
2022-10-19T07:33:23.077Z,13.85
2022-10-19T07:35:49.945Z,13.85
2022-10-19T07:38:16.487Z,13.68
2022-10-19T07:40:46.385Z,13.77
2022-10-19T07:43:14.016Z,13.91
2022-10-19T07:45:40.494Z,13.73
2022-10-19T07:48:06.890Z,13.79
2022-10-19T07:50:33.354Z,13.93
2022-10-19T07:52:59.881Z,14.02
2022-10-19T07:55:26.553Z,14.29
2022-10-19T07:57:52.996Z,14.24
2022-10-19T08:00:19.601Z,14.36
2022-10-19T08:02:59.742Z,14.47
2022-10-19T08:05:33.477Z,14.50
2022-10-19T08:07:59.983Z,14.61
2022-10-19T08:10:26.639Z,14.57
2022-10-19T08:12:53.261Z,14.63
2022-10-19T08:15:19.806Z,14.77
2022-10-19T08:17:46.259Z,14.92
2022-10-19T08:20:12.909Z,15.28
2022-10-19T08:22:39.721Z,15.50
2022-10-19T08:25:06.321Z,15.61
2022-10-19T08:27:32.867Z,15.14
2022-10-19T08:29:59.339Z,15.18
2022-10-19T08:32:25.762Z,15.19
2022-10-19T08:34:52.248Z,15.12
2022-10-19T08:37:39.601Z,15.26
2022-10-19T08:40:05.742Z,15.54
2022-10-19T08:42:52.628Z,15.49
2022-10-19T08:45:25.569Z,15.50
2022-10-19T08:48:15.827Z,15.65
2022-10-19T08:50:44.900Z,15.59
2022-10-19T08:53:16.743Z,15.55
2022-10-19T08:55:53.518Z,15.65
2022-10-19T08:58:47.391Z,16.07
2022-10-19T09:01:36.880Z,15.99
2022-10-19T09:04:20.587Z,16.19
2022-10-19T09:07:20.833Z,16.10
2022-10-19T09:10:05.491Z,16.28
2022-10-19T09:12:47.909Z,16.34
2022-10-19T09:15:25.462Z,16.38
2022-10-19T09:17:51.976Z,16.71
2022-10-19T09:20:31.512Z,16.85
2022-10-19T09:23:11.061Z,16.83
2022-10-19T09:25:40.272Z,16.92
2022-10-19T09:28:13.988Z,16.96
2022-10-19T09:30:42.676Z,17.38
2022-10-19T09:33:19.085Z,17.65
2022-10-19T09:35:46.703Z,17.28
2022-10-19T09:38:16.723Z,18.00
2022-10-19T09:40:43.941Z,18.09
2022-10-19T09:43:21.926Z,17.80
2022-10-19T09:46:00.804Z,18.10
2022-10-19T09:48:38.324Z,18.41
2022-10-19T09:51:12.389Z,18.36
2022-10-19T09:53:44.641Z,18.49
2022-10-19T09:56:19.192Z,18.15
2022-10-19T09:58:57.264Z,17.80
2022-10-19T10:01:41.448Z,18.10
2022-10-19T10:04:18.272Z,17.53
2022-10-19T10:06:48.054Z,17.89
2022-10-19T10:09:21.248Z,18.11
2022-10-19T10:11:50.755Z,18.27
2022-10-19T10:14:26.755Z,18.08
2022-10-19T10:32:55.076Z,17.48
2022-10-19T10:35:39.535Z,17.37
2022-10-19T10:38:21.595Z,17.60
2022-10-19T10:41:02.823Z,17.62
2022-10-19T10:43:34.784Z,18.09
2022-10-19T10:46:06.465Z,18.47
2022-10-19T10:48:53.407Z,18.46
2022-10-19T10:51:52.208Z,18.84
2022-10-19T10:54:26.736Z,19.01
2022-10-19T10:57:12.101Z,18.86
2022-10-19T10:59:48.282Z,19.65
2022-10-19T11:02:17.547Z,18.96
2022-10-19T11:04:52.299Z,18.80
2022-10-19T11:07:22.886Z,18.29
2022-10-19T11:10:02.706Z,18.62
2022-10-19T11:12:38.312Z,19.09
2022-10-19T11:15:19.537Z,19.63
2022-10-19T11:17:55.655Z,19.28
2022-10-19T11:20:26.655Z,18.80
2022-10-19T11:23:06.273Z,18.86
2022-10-19T11:25:44.893Z,19.03
2022-10-19T11:28:22.144Z,17.88
2022-10-19T11:31:02.974Z,18.29
2022-10-19T11:33:53.229Z,18.19
2022-10-19T11:36:28.765Z,18.16
2022-10-19T11:39:21.671Z,18.30
2022-10-19T11:42:06.318Z,18.57
2022-10-19T11:44:42.311Z,18.13
2022-10-19T11:47:29.968Z,18.20
2022-10-19T11:49:59.160Z,18.16
2022-10-19T11:52:56.264Z,18.30
2022-10-19T11:55:34.566Z,18.44
2022-10-19T11:58:05.201Z,18.15
2022-10-19T12:00:42.494Z,17.81
2022-10-19T12:03:36.361Z,17.89
2022-10-19T12:06:44.688Z,17.89
2022-10-19T12:09:28.099Z,18.11
2022-10-19T12:12:30.900Z,18.06
2022-10-19T12:15:23.874Z,18.18
2022-10-19T12:17:53.719Z,17.78
2022-10-19T12:20:24.173Z,17.77
2022-10-19T12:22:51.231Z,17.60
2022-10-19T12:25:19.903Z,17.67
2022-10-19T12:27:49.098Z,17.54
2022-10-19T12:30:17.668Z,17.82
2022-10-19T12:32:54.569Z,17.85
2022-10-19T12:35:45.802Z,17.74
2022-10-19T12:38:40.924Z,17.69
2022-10-19T12:41:18.442Z,17.83
2022-10-19T12:44:01.028Z,17.92
2022-10-19T12:46:39.332Z,17.95
2022-10-19T12:49:30.606Z,17.68
2022-10-19T12:51:59.508Z,17.88
2022-10-19T12:54:34.433Z,17.86
2022-10-19T12:57:02.925Z,17.85
2022-10-19T12:59:34.944Z,17.96
2022-10-19T13:02:05.073Z,18.07
2022-10-19T13:04:35.820Z,17.78
2022-10-19T13:07:04.502Z,17.93
2022-10-19T13:09:42.083Z,18.22
2022-10-19T13:12:17.829Z,18.01
2022-10-19T13:14:51.322Z,17.81
2022-10-19T13:17:49.112Z,17.89
2022-10-19T13:20:15.647Z,18.14
2022-10-19T13:22:44.980Z,17.82
2022-10-19T13:25:30.991Z,17.31
2022-10-19T13:28:02.186Z,17.74
2022-10-19T13:30:42.125Z,16.95
2022-10-19T13:33:26.808Z,17.58
2022-10-19T13:35:59.509Z,17.23
2022-10-19T13:38:32.393Z,17.06
2022-10-19T13:41:10.062Z,16.70
2022-10-19T13:44:02.764Z,17.01
2022-10-19T13:46:29.183Z,17.13
2022-10-19T13:49:01.683Z,16.75
2022-10-19T13:52:02.031Z,16.99
2022-10-19T13:54:55.284Z,17.00
2022-10-19T13:58:14.070Z,16.74
2022-10-19T14:01:18.102Z,16.82
2022-10-19T14:04:15.177Z,16.38
2022-10-19T14:06:54.631Z,16.23
2022-10-19T14:09:31.249Z,16.11
2022-10-19T14:12:08.922Z,16.29
2022-10-19T14:14:43.239Z,16.13
2022-10-19T14:17:42.326Z,16.13
2022-10-19T14:20:29.738Z,16.17
2022-10-19T14:22:56.476Z,15.62
2022-10-19T14:25:27.109Z,15.59
2022-10-19T14:28:02.170Z,15.34
2022-10-19T14:30:32.366Z,15.62
2022-10-19T14:33:02.344Z,15.43
2022-10-19T14:35:33.047Z,15.43
2022-10-19T14:38:00.349Z,15.48
2022-10-19T14:40:38.556Z,15.40
2022-10-19T14:43:28.962Z,15.49
2022-10-19T14:46:04.529Z,15.68
2022-10-19T14:48:31.051Z,15.52
2022-10-19T14:50:58.114Z,15.58
2022-10-19T14:53:40.408Z,15.54
2022-10-19T14:56:15.940Z,15.24
2022-10-19T14:58:50.671Z,15.24
2022-10-19T15:01:19.293Z,15.10
2022-10-19T15:03:46.672Z,15.13
2022-10-19T15:06:23.278Z,15.24
2022-10-19T15:09:03.128Z,15.24
2022-10-19T15:11:41.216Z,15.12
2022-10-19T15:14:19.041Z,15.40
2022-10-19T15:16:53.216Z,15.00
2022-10-19T15:19:32.386Z,14.96
2022-10-19T15:22:16.792Z,15.32
2022-10-19T15:24:59.298Z,14.97
2022-10-19T15:27:40.248Z,14.77
2022-10-19T15:30:28.020Z,14.79
2022-10-19T15:33:00.219Z,14.62
2022-10-19T15:35:36.292Z,14.82
2022-10-19T15:38:26.974Z,14.57
2022-10-19T15:40:58.777Z,14.56
2022-10-19T15:43:34.228Z,14.58
2022-10-19T15:46:06.737Z,14.36
2022-10-19T15:48:42.083Z,14.33
2022-10-19T15:51:23.552Z,14.19
2022-10-19T15:53:55.901Z,14.22
2022-10-19T15:56:24.419Z,14.14
2022-10-19T15:58:56.156Z,13.94
2022-10-19T16:01:26.651Z,13.82
2022-10-19T16:03:53.959Z,13.77
2022-10-19T16:06:23.286Z,13.74
2022-10-19T16:08:51.263Z,13.69
2022-10-19T16:11:20.417Z,13.54
2022-10-19T16:13:47.302Z,13.36
2022-10-19T16:16:25.768Z,13.12
2022-10-19T16:18:53.012Z,13.12
2022-10-19T16:21:22.375Z,13.06
2022-10-19T16:23:49.108Z,13.03
2022-10-19T16:26:16.620Z,12.93
2022-10-19T16:28:43.806Z,12.84
2022-10-19T16:31:10.969Z,12.77
2022-10-19T16:33:37.502Z,12.73
2022-10-19T16:36:05.101Z,12.64
2022-10-19T16:38:31.646Z,12.64
2022-10-19T16:41:05.202Z,12.70
2022-10-19T16:43:32.331Z,12.74
2022-10-19T16:45:58.873Z,12.69
2022-10-19T16:48:25.395Z,12.64
2022-10-19T16:51:07.262Z,12.57
2022-10-19T16:53:35.086Z,12.49
2022-10-19T16:56:20.825Z,12.40
2022-10-19T16:58:47.403Z,12.24
2022-10-19T17:01:15.998Z,12.16
2022-10-19T17:03:44.207Z,12.16
2022-10-19T17:06:11.313Z,12.20
2022-10-19T17:09:02.725Z,12.35
2022-10-19T17:11:25.310Z,12.37
2022-10-19T17:13:54.203Z,12.41
2022-10-19T17:16:22.168Z,12.18
2022-10-19T17:18:49.478Z,12.12
2022-10-19T17:21:19.963Z,12.06
2022-10-19T17:23:50.944Z,11.99
2022-10-19T17:26:17.503Z,11.91
2022-10-19T17:28:43.932Z,11.94
2022-10-19T17:31:13.741Z,11.90
2022-10-19T17:33:41.743Z,11.98
2022-10-19T17:36:14.433Z,11.86
2022-10-19T17:38:41.645Z,11.79
2022-10-19T17:41:11.181Z,11.79
2022-10-19T17:43:39.049Z,11.82
2022-10-19T17:46:07.674Z,11.59
2022-10-19T17:48:35.951Z,11.48
2022-10-19T17:51:06.134Z,11.58
2022-10-19T17:53:33.670Z,11.54
2022-10-19T17:56:05.926Z,11.61
2022-10-19T17:58:36.379Z,11.57
2022-10-19T18:01:06.659Z,11.51
2022-10-19T18:03:35.122Z,11.43
2022-10-19T18:06:05.638Z,11.44
2022-10-19T18:08:38.024Z,11.39
2022-10-19T18:11:11.474Z,11.39
2022-10-19T18:13:39.198Z,11.35
2022-10-19T18:16:14.714Z,11.36
2022-10-19T18:18:45.669Z,11.36
2022-10-19T18:21:14.215Z,11.23
2022-10-19T18:23:41.365Z,11.20
2022-10-19T18:26:11.667Z,11.18
2022-10-19T18:28:38.237Z,11.06
2022-10-19T18:31:08.689Z,11.10
2022-10-19T18:33:36.138Z,11.13
2022-10-19T18:36:03.139Z,11.05
2022-10-19T18:38:29.699Z,10.99
2022-10-19T18:40:56.592Z,10.93
2022-10-19T18:43:23.341Z,10.83
2022-10-19T18:45:54.146Z,10.79
2022-10-19T18:48:21.693Z,10.71
2022-10-19T18:50:48.825Z,10.66
2022-10-19T18:53:15.755Z,10.63
2022-10-19T18:55:42.671Z,10.63
2022-10-19T18:58:09.890Z,10.56
2022-10-19T19:00:37.041Z,10.56
2022-10-19T19:03:03.981Z,10.47
2022-10-19T19:05:32.704Z,10.38
2022-10-19T19:07:59.237Z,10.34
2022-10-19T19:10:25.727Z,10.28
2022-10-19T19:12:52.350Z,10.23
2022-10-19T19:15:19.735Z,10.14
2022-10-19T19:17:46.237Z,10.06
2022-10-19T19:20:12.692Z,10.07
2022-10-19T19:22:39.376Z,10.02
2022-10-19T19:25:06.401Z,10.04
2022-10-19T19:27:32.935Z,9.97
2022-10-19T19:30:00.571Z,9.88
2022-10-19T19:32:27.581Z,9.88
2022-10-19T19:34:54.982Z,9.84
2022-10-19T19:37:21.698Z,9.83
2022-10-19T19:39:48.187Z,9.81
2022-10-19T19:42:14.678Z,9.78
2022-10-19T19:44:41.180Z,9.77
2022-10-19T19:47:08.473Z,9.74
2022-10-19T19:49:35.031Z,9.68
2022-10-19T19:52:01.519Z,9.66
2022-10-19T19:54:28.049Z,9.60
2022-10-19T19:56:54.486Z,9.51
2022-10-19T19:59:21.044Z,9.52
2022-10-19T20:01:47.512Z,9.52
2022-10-19T20:04:14.066Z,9.50
2022-10-19T20:06:41.056Z,9.43
2022-10-19T20:09:08.789Z,9.41
2022-10-19T20:11:38.438Z,9.27
2022-10-19T20:14:08.557Z,9.29
2022-10-19T20:16:35.515Z,9.24
2022-10-19T20:19:11.690Z,9.22
2022-10-19T20:21:39.075Z,9.21
2022-10-19T20:24:06.320Z,9.17
2022-10-19T20:26:33.484Z,9.11
2022-10-19T20:29:02.616Z,9.16
2022-10-19T20:31:30.162Z,9.06
2022-10-19T20:33:56.766Z,9.01
2022-10-19T20:36:24.451Z,8.89
2022-10-19T20:38:52.415Z,8.88
2022-10-19T20:41:20.607Z,8.85
2022-10-19T20:43:47.396Z,8.91
2022-10-19T20:46:16.523Z,8.89
2022-10-19T20:48:43.616Z,8.85
2022-10-19T20:51:24.855Z,8.86
2022-10-19T20:53:55.603Z,8.81
2022-10-19T20:56:28.195Z,8.79
2022-10-19T20:58:56.477Z,8.73
2022-10-19T21:01:23.635Z,8.65
2022-10-19T21:03:55.728Z,8.74
2022-10-19T21:06:24.387Z,8.69
2022-10-19T21:08:51.506Z,8.68
2022-10-19T21:11:24.218Z,8.58
2022-10-19T21:13:55.831Z,8.56
2022-10-19T21:16:24.389Z,8.50
2022-10-19T21:18:50.909Z,8.48
2022-10-19T21:21:18.932Z,8.46
2022-10-19T21:23:49.687Z,8.45
2022-10-19T21:26:17.351Z,8.46
2022-10-19T21:28:49.015Z,8.38
2022-10-19T21:31:17.290Z,8.35
2022-10-19T21:33:44.423Z,8.27
2022-10-19T21:36:12.230Z,8.25
2022-10-19T21:38:38.784Z,8.23
2022-10-19T21:41:06.838Z,8.23
2022-10-19T21:43:34.097Z,8.22
2022-10-19T21:46:05.782Z,8.20
2022-10-19T21:48:33.696Z,8.14
2022-10-19T21:51:19.064Z,8.17
2022-10-19T21:53:46.624Z,8.17
2022-10-19T21:56:14.480Z,8.18
2022-10-19T21:58:52.743Z,8.14
2022-10-19T22:17:40.357Z,7.46
2022-10-19T22:20:07.159Z,7.59
2022-10-19T22:22:33.937Z,7.67
2022-10-19T22:25:00.607Z,7.68
2022-10-19T22:27:27.180Z,7.77
2022-10-19T22:29:53.758Z,7.74
2022-10-19T22:32:20.288Z,7.76
2022-10-19T22:34:46.785Z,7.71
2022-10-19T22:37:13.204Z,7.75
2022-10-19T22:42:06.169Z,7.68
2022-10-19T22:44:32.624Z,7.62
2022-10-19T22:46:59.072Z,7.55
2022-10-19T22:49:25.526Z,7.51
2022-10-19T22:51:52.004Z,7.44
2022-10-19T22:54:18.498Z,7.45
2022-10-19T22:56:44.940Z,7.43
2022-10-19T22:59:11.402Z,7.40
2022-10-19T23:01:38.236Z,7.43
2022-10-19T23:04:04.854Z,7.37
2022-10-19T23:06:31.244Z,7.35
2022-10-19T23:08:57.859Z,7.34
2022-10-19T23:11:24.437Z,7.37
2022-10-19T23:13:50.825Z,7.37
2022-10-19T23:16:17.429Z,7.37
2022-10-19T23:18:44.108Z,7.37
2022-10-19T23:21:13.078Z,7.30
2022-10-19T23:23:40.870Z,7.30
2022-10-19T23:26:09.526Z,7.34
2022-10-19T23:28:39.163Z,7.33
2022-10-19T23:31:09.262Z,7.22
2022-10-19T23:33:36.483Z,7.18
2022-10-19T23:36:14.409Z,7.18
2022-10-19T23:38:42.437Z,7.18
2022-10-19T23:41:09.031Z,7.22
2022-10-19T23:46:03.270Z,7.15
2022-10-19T23:48:30.164Z,7.20
2022-10-19T23:51:01.775Z,7.07
2022-10-19T23:53:29.830Z,7.26
2022-10-19T23:56:01.193Z,7.22
2022-10-19T23:58:28.309Z,7.18
